createdAt,value
2023-05-14T00:00:57.380Z,9.11
2023-05-14T00:01:58.913Z,9.11
2023-05-14T00:03:00.644Z,9.12
2023-05-14T00:04:03.669Z,9.08
2023-05-14T00:05:05.815Z,9.08
2023-05-14T00:06:09.233Z,9.08
2023-05-14T00:07:11.514Z,9.09
2023-05-14T00:08:13.215Z,9.09
2023-05-14T00:09:14.659Z,9.07
2023-05-14T00:10:17.572Z,9.09
2023-05-14T00:11:19.466Z,9.09
2023-05-14T00:12:20.929Z,9.08
2023-05-14T00:13:22.430Z,9.11
2023-05-14T00:14:24.059Z,9.08
2023-05-14T00:15:25.558Z,9.09
2023-05-14T00:16:27.160Z,9.11
2023-05-14T00:17:28.814Z,9.09
2023-05-14T00:18:30.422Z,9.08
2023-05-14T00:19:32.136Z,9.07
2023-05-14T00:20:33.633Z,9.07
2023-05-14T00:21:35.162Z,9.10
2023-05-14T00:22:37.225Z,9.10
2023-05-14T00:23:39.020Z,9.10
2023-05-14T00:24:40.473Z,9.09
2023-05-14T00:25:41.985Z,9.08
2023-05-14T00:26:43.755Z,9.07
2023-05-14T00:27:45.355Z,9.12
2023-05-14T00:28:47.243Z,9.09
2023-05-14T00:29:48.955Z,9.09
2023-05-14T00:30:50.952Z,9.08
2023-05-14T00:31:52.758Z,9.08
2023-05-14T00:32:54.828Z,9.09
2023-05-14T00:33:56.394Z,9.09
2023-05-14T00:34:58.160Z,9.09
2023-05-14T00:35:59.610Z,9.09
2023-05-14T00:37:01.859Z,9.08
2023-05-14T00:38:03.733Z,9.09
2023-05-14T00:39:05.344Z,9.09
2023-05-14T00:40:08.555Z,9.09
2023-05-14T00:41:10.507Z,9.09
2023-05-14T00:42:11.983Z,9.11
2023-05-14T00:43:13.498Z,9.10
2023-05-14T00:44:15.036Z,9.09
2023-05-14T00:45:16.617Z,9.09
2023-05-14T00:46:18.189Z,9.09
2023-05-14T00:47:20.137Z,9.08
2023-05-14T00:48:23.007Z,9.11
2023-05-14T00:49:25.582Z,9.10
2023-05-14T00:50:27.597Z,9.07
2023-05-14T00:51:29.685Z,9.07
2023-05-14T00:52:32.060Z,9.05
2023-05-14T00:53:34.027Z,9.04
2023-05-14T00:54:36.436Z,9.07
2023-05-14T00:55:38.411Z,9.04
2023-05-14T00:56:40.179Z,9.05
2023-05-14T00:57:42.147Z,9.04
2023-05-14T00:58:43.694Z,9.05
2023-05-14T00:59:45.504Z,9.04
2023-05-14T01:00:47.025Z,9.05
2023-05-14T01:01:48.542Z,9.03
2023-05-14T01:02:50.108Z,9.03
2023-05-14T01:03:53.452Z,9.01
2023-05-14T01:04:56.012Z,9.01
2023-05-14T01:06:18.827Z,8.99
2023-05-14T01:07:31.923Z,9.00
2023-05-14T01:08:59.549Z,8.99
2023-05-14T01:10:07.966Z,8.98
2023-05-14T01:11:34.677Z,8.97
2023-05-14T01:13:10.754Z,8.97
2023-05-14T01:14:28.222Z,8.98
2023-05-14T01:15:34.622Z,8.94
2023-05-14T01:16:38.084Z,8.90
2023-05-14T01:17:47.799Z,8.89
2023-05-14T01:18:53.148Z,8.90
2023-05-14T01:19:55.449Z,8.89
2023-05-14T01:20:56.994Z,8.90
2023-05-14T01:21:58.621Z,8.90
2023-05-14T01:23:00.284Z,8.91
2023-05-14T01:24:02.183Z,8.92
2023-05-14T01:25:05.088Z,8.90
2023-05-14T01:26:06.841Z,8.87
2023-05-14T01:27:26.082Z,8.87
2023-05-14T01:28:34.227Z,8.85
2023-05-14T01:29:38.961Z,8.83
2023-05-14T01:30:46.165Z,8.85
2023-05-14T01:31:50.926Z,8.85
2023-05-14T01:32:56.674Z,8.84
2023-05-14T01:34:00.196Z,8.82
2023-05-14T01:35:02.645Z,8.83
2023-05-14T01:36:05.220Z,8.83
2023-05-14T01:37:08.398Z,8.84
2023-05-14T01:38:12.245Z,8.86
2023-05-14T01:39:15.223Z,8.84
2023-05-14T01:40:17.407Z,8.84
2023-05-14T01:41:19.555Z,8.85
2023-05-14T01:42:21.968Z,8.84
2023-05-14T01:43:24.189Z,8.84
2023-05-14T01:44:26.082Z,8.86
2023-05-14T01:45:27.715Z,8.85
2023-05-14T01:46:33.352Z,8.85
2023-05-14T01:47:35.014Z,8.84
2023-05-14T01:48:37.789Z,8.85
2023-05-14T01:49:39.548Z,8.85
2023-05-14T01:50:41.540Z,8.83
2023-05-14T01:51:42.990Z,8.85
2023-05-14T01:52:44.663Z,8.85
2023-05-14T01:53:46.253Z,8.85
2023-05-14T01:54:48.405Z,8.84
2023-05-14T01:55:50.245Z,8.83
2023-05-14T01:56:52.181Z,8.80
2023-05-14T01:57:54.172Z,8.80
2023-05-14T01:58:57.081Z,8.80
2023-05-14T01:59:58.940Z,8.81
2023-05-14T02:01:03.613Z,8.80
2023-05-14T02:02:05.271Z,8.78
2023-05-14T02:03:06.771Z,8.75
2023-05-14T02:04:09.021Z,8.75
2023-05-14T02:05:12.051Z,8.71
2023-05-14T02:06:13.742Z,8.68
2023-05-14T02:07:15.307Z,8.67
2023-05-14T02:08:16.800Z,8.65
2023-05-14T02:09:18.336Z,8.60
2023-05-14T02:10:19.855Z,8.57
2023-05-14T02:11:24.889Z,8.53
2023-05-14T02:12:26.425Z,8.49
2023-05-14T02:13:28.161Z,8.43
2023-05-14T02:14:30.987Z,8.40
2023-05-14T02:15:32.529Z,8.37
2023-05-14T02:16:34.134Z,8.33
2023-05-14T02:17:35.775Z,8.26
2023-05-14T02:18:37.297Z,8.20
2023-05-14T02:19:38.780Z,8.13
2023-05-14T02:20:40.795Z,8.09
2023-05-14T02:21:42.309Z,8.04
2023-05-14T02:22:46.024Z,7.98
2023-05-14T02:23:49.397Z,7.93
2023-05-14T02:24:51.383Z,7.87
2023-05-14T02:25:53.050Z,7.80
2023-05-14T02:26:54.652Z,7.75
2023-05-14T02:27:56.166Z,7.70
2023-05-14T02:28:58.068Z,7.68
2023-05-14T02:30:00.779Z,7.66
2023-05-14T02:31:02.405Z,7.66
2023-05-14T02:32:04.109Z,7.62
2023-05-14T02:33:05.919Z,7.58
2023-05-14T02:34:07.535Z,7.57
2023-05-14T02:35:09.553Z,7.56
2023-05-14T02:36:12.102Z,7.57
2023-05-14T02:37:13.679Z,7.56
2023-05-14T02:38:15.214Z,7.57
2023-05-14T02:39:16.768Z,7.58
2023-05-14T02:40:20.395Z,7.60
2023-05-14T02:41:21.948Z,7.61
2023-05-14T02:42:23.402Z,7.64
2023-05-14T02:43:24.921Z,7.66
2023-05-14T02:44:26.941Z,7.70
2023-05-14T02:45:28.400Z,7.71
2023-05-14T02:46:31.876Z,7.73
2023-05-14T02:47:34.837Z,7.77
2023-05-14T02:48:38.410Z,7.82
2023-05-14T02:49:41.490Z,7.85
2023-05-14T02:50:43.179Z,7.86
2023-05-14T02:51:44.918Z,7.90
2023-05-14T02:52:46.518Z,7.94
2023-05-14T02:53:48.272Z,7.96
2023-05-14T02:54:49.921Z,7.97
2023-05-14T02:55:51.406Z,8.00
2023-05-14T02:56:53.006Z,8.03
2023-05-14T02:57:54.601Z,8.05
2023-05-14T02:58:56.170Z,8.05
2023-05-14T02:59:58.300Z,8.06
2023-05-14T03:01:00.315Z,8.07
2023-05-14T03:02:02.796Z,8.08
2023-05-14T03:03:05.111Z,8.07
2023-05-14T03:04:07.716Z,8.08
2023-05-14T03:05:09.349Z,8.12
2023-05-14T03:06:10.950Z,8.11
2023-05-14T03:07:12.448Z,8.12
2023-05-14T03:08:13.918Z,8.14
2023-05-14T03:09:15.419Z,8.16
2023-05-14T03:10:16.989Z,8.17
2023-05-14T03:11:18.574Z,8.18
2023-05-14T03:12:21.015Z,8.22
2023-05-14T03:13:22.516Z,8.21
2023-05-14T03:14:24.046Z,8.20
2023-05-14T03:15:25.655Z,8.22
2023-05-14T03:16:27.531Z,8.23
2023-05-14T03:17:29.148Z,8.24
2023-05-14T03:18:33.295Z,8.24
2023-05-14T03:19:34.786Z,8.22
2023-05-14T03:20:36.477Z,8.21
2023-05-14T03:21:38.186Z,8.25
2023-05-14T03:22:39.728Z,8.25
2023-05-14T03:23:41.226Z,8.23
2023-05-14T03:24:42.699Z,8.25
2023-05-14T03:25:44.157Z,8.27
2023-05-14T03:26:45.683Z,8.27
2023-05-14T03:27:48.197Z,8.27
2023-05-14T03:28:51.342Z,8.29
2023-05-14T03:29:52.816Z,8.28
2023-05-14T03:30:54.606Z,8.27
2023-05-14T03:31:56.236Z,8.27
2023-05-14T03:32:57.986Z,8.31
2023-05-14T03:33:59.597Z,8.30
2023-05-14T03:35:01.282Z,8.29
2023-05-14T03:36:02.864Z,8.28
2023-05-14T03:37:05.744Z,8.28
2023-05-14T03:38:07.741Z,8.28
2023-05-14T03:39:09.749Z,8.29
2023-05-14T03:40:11.679Z,8.31
2023-05-14T03:41:13.219Z,8.29
2023-05-14T03:42:14.762Z,8.30
2023-05-14T03:43:16.394Z,8.28
2023-05-14T03:44:18.278Z,8.27
2023-05-14T03:45:20.274Z,8.29
2023-05-14T03:46:21.819Z,8.30
2023-05-14T03:47:23.571Z,8.23
2023-05-14T03:48:25.440Z,8.25
2023-05-14T03:49:27.244Z,8.27
2023-05-14T03:50:29.532Z,8.27
2023-05-14T03:51:31.771Z,8.27
2023-05-14T03:52:33.586Z,8.34
2023-05-14T03:53:37.757Z,8.27
2023-05-14T03:54:41.131Z,8.28
2023-05-14T03:55:42.678Z,8.29
2023-05-14T03:56:46.231Z,8.31
2023-05-14T03:57:48.886Z,8.28
2023-05-14T03:58:50.391Z,8.29
2023-05-14T03:59:51.929Z,8.30
2023-05-14T04:00:54.445Z,8.32
2023-05-14T04:01:56.095Z,8.34
2023-05-14T04:02:57.661Z,8.32
2023-05-14T04:03:59.306Z,8.31
2023-05-14T04:05:00.992Z,8.35
2023-05-14T04:06:02.591Z,8.37
2023-05-14T04:07:04.290Z,8.35
2023-05-14T04:08:05.841Z,8.33
2023-05-14T04:09:07.464Z,8.35
2023-05-14T04:10:10.070Z,8.36
2023-05-14T04:11:12.005Z,8.37
2023-05-14T04:12:13.541Z,8.38
2023-05-14T04:13:15.790Z,8.40
2023-05-14T04:14:18.198Z,8.40
2023-05-14T04:15:20.033Z,8.38
2023-05-14T04:16:21.538Z,8.41
2023-05-14T04:17:23.085Z,8.38
2023-05-14T04:18:25.171Z,8.33
2023-05-14T04:19:27.000Z,8.36
2023-05-14T04:20:28.676Z,8.36
2023-05-14T04:21:30.250Z,8.34
2023-05-14T04:22:32.154Z,8.37
2023-05-14T04:23:33.780Z,8.39
2023-05-14T04:24:35.267Z,8.39
2023-05-14T04:25:36.722Z,8.40
2023-05-14T04:26:38.401Z,8.40
2023-05-14T04:27:40.191Z,8.42
2023-05-14T04:28:41.690Z,8.45
2023-05-14T04:29:43.121Z,8.46
2023-05-14T04:30:45.617Z,8.47
2023-05-14T04:31:49.377Z,8.47
2023-05-14T04:32:51.580Z,8.51
2023-05-14T04:33:53.085Z,8.47
2023-05-14T04:34:54.642Z,8.48
2023-05-14T04:35:56.147Z,8.51
2023-05-14T04:36:57.601Z,8.53
2023-05-14T04:37:59.266Z,8.54
2023-05-14T04:39:00.740Z,8.54
2023-05-14T04:40:02.713Z,8.55
2023-05-14T04:41:04.609Z,8.56
2023-05-14T04:42:06.808Z,8.59
2023-05-14T04:43:08.392Z,8.57
2023-05-14T04:44:09.833Z,8.58
2023-05-14T04:45:13.410Z,8.58
2023-05-14T04:46:15.536Z,8.60
2023-05-14T04:47:17.674Z,8.63
2023-05-14T04:48:19.216Z,8.63
2023-05-14T04:49:21.799Z,8.66
2023-05-14T04:50:23.421Z,8.67
2023-05-14T04:51:25.081Z,8.66
2023-05-14T04:52:26.544Z,8.71
2023-05-14T04:53:28.040Z,8.66
2023-05-14T04:54:29.828Z,8.70
2023-05-14T04:55:31.479Z,8.70
2023-05-14T04:56:32.947Z,8.73
2023-05-14T04:57:34.414Z,8.73
2023-05-14T04:58:35.885Z,8.73
2023-05-14T04:59:37.705Z,8.73
2023-05-14T05:00:40.111Z,8.71
2023-05-14T05:01:41.677Z,8.71
2023-05-14T05:02:43.597Z,8.73
2023-05-14T05:03:45.181Z,8.76
2023-05-14T05:04:47.158Z,8.77
2023-05-14T05:05:48.631Z,8.79
2023-05-14T05:06:50.862Z,8.78
2023-05-14T05:07:52.394Z,8.81
2023-05-14T05:08:53.887Z,8.81
2023-05-14T05:09:55.423Z,8.81
2023-05-14T05:10:56.873Z,8.81
2023-05-14T05:11:58.455Z,8.83
2023-05-14T05:13:00.395Z,8.78
2023-05-14T05:14:01.951Z,8.74
2023-05-14T05:15:03.704Z,8.76
2023-05-14T05:16:05.732Z,8.76
2023-05-14T05:17:07.307Z,8.80
2023-05-14T05:18:08.950Z,8.85
2023-05-14T05:19:10.652Z,8.89
2023-05-14T05:20:13.268Z,8.91
2023-05-14T05:21:14.784Z,8.99
2023-05-14T05:22:16.334Z,9.00
2023-05-14T05:23:17.830Z,9.02
2023-05-14T05:24:19.322Z,9.06
2023-05-14T05:25:20.851Z,9.09
2023-05-14T05:26:22.389Z,9.08
2023-05-14T05:27:23.910Z,9.17
2023-05-14T05:28:25.387Z,9.25
2023-05-14T05:29:27.059Z,9.27
2023-05-14T05:30:28.568Z,9.34
2023-05-14T05:31:31.274Z,9.38
2023-05-14T05:32:32.800Z,9.50
2023-05-14T05:33:35.108Z,9.55
2023-05-14T05:34:36.789Z,9.63
2023-05-14T05:35:38.261Z,9.56
2023-05-14T05:36:39.712Z,9.64
2023-05-14T05:37:42.346Z,9.69
2023-05-14T05:38:43.820Z,9.73
2023-05-14T05:39:45.664Z,9.76
2023-05-14T05:40:47.880Z,9.74
2023-05-14T05:41:49.357Z,9.72
2023-05-14T05:42:50.845Z,9.67
2023-05-14T05:43:52.359Z,9.69
2023-05-14T05:44:53.870Z,9.60
2023-05-14T05:45:55.476Z,9.55
2023-05-14T05:46:57.807Z,9.55
2023-05-14T05:47:59.464Z,9.44
2023-05-14T05:49:01.036Z,9.49
2023-05-14T05:50:02.586Z,9.36
2023-05-14T05:51:04.241Z,9.37
2023-05-14T05:52:05.860Z,9.41
2023-05-14T05:53:07.646Z,9.33
2023-05-14T05:54:09.110Z,9.34
2023-05-14T05:55:10.859Z,9.33
2023-05-14T05:56:12.318Z,9.33
2023-05-14T05:57:13.804Z,9.37
2023-05-14T05:58:17.399Z,9.35
2023-05-14T05:59:18.905Z,9.34
2023-05-14T06:00:20.895Z,9.42
2023-05-14T06:01:22.439Z,9.37
2023-05-14T06:02:25.202Z,9.41
2023-05-14T06:03:27.111Z,9.41
2023-05-14T06:04:28.658Z,9.43
2023-05-14T06:05:30.243Z,9.41
2023-05-14T06:06:32.761Z,9.42
2023-05-14T06:07:34.527Z,9.43
2023-05-14T06:08:36.037Z,9.45
2023-05-14T06:09:37.616Z,9.49
2023-05-14T06:10:39.110Z,9.51
2023-05-14T06:11:40.586Z,9.51
2023-05-14T06:12:42.095Z,9.55
2023-05-14T06:13:43.803Z,9.59
2023-05-14T06:14:45.326Z,9.55
2023-05-14T06:15:46.933Z,9.56
2023-05-14T06:16:48.407Z,9.58
2023-05-14T06:17:50.046Z,9.53
2023-05-14T06:18:52.728Z,9.57
2023-05-14T06:19:54.360Z,9.58
2023-05-14T06:20:56.913Z,9.59
2023-05-14T06:21:58.397Z,9.57
2023-05-14T06:22:59.862Z,9.60
2023-05-14T06:24:01.563Z,9.67
2023-05-14T06:25:03.434Z,9.70
2023-05-14T06:26:04.917Z,9.65
2023-05-14T06:27:06.617Z,9.76
2023-05-14T06:28:08.396Z,9.79
2023-05-14T06:29:09.842Z,9.77
2023-05-14T06:30:12.048Z,9.81
2023-05-14T06:31:13.738Z,9.83
2023-05-14T06:32:15.698Z,9.82
2023-05-14T06:33:19.338Z,9.83
2023-05-14T06:34:22.031Z,9.80
2023-05-14T06:35:23.852Z,9.69
2023-05-14T06:36:25.489Z,9.67
2023-05-14T06:37:27.015Z,9.66
2023-05-14T06:38:28.510Z,9.65
2023-05-14T06:39:29.996Z,9.57
2023-05-14T06:40:31.989Z,9.50
2023-05-14T06:41:33.530Z,9.42
2023-05-14T06:42:34.990Z,9.39
2023-05-14T06:43:37.011Z,9.40
2023-05-14T06:44:38.486Z,9.47
2023-05-14T06:45:39.933Z,9.45
2023-05-14T06:46:41.531Z,9.46
2023-05-14T06:47:43.063Z,9.52
2023-05-14T06:48:44.633Z,9.53
2023-05-14T06:49:46.281Z,9.56
2023-05-14T06:50:49.315Z,9.60
2023-05-14T06:51:50.857Z,9.65
2023-05-14T06:52:52.379Z,9.67
2023-05-14T06:53:55.405Z,9.73
2023-05-14T06:54:56.855Z,9.82
2023-05-14T06:55:58.379Z,9.90
2023-05-14T06:56:59.951Z,9.96
2023-05-14T06:58:01.674Z,10.07
2023-05-14T06:59:03.192Z,10.15
2023-05-14T07:00:05.593Z,10.19
2023-05-14T07:01:07.211Z,10.25
2023-05-14T07:02:08.699Z,10.35
2023-05-14T07:03:10.327Z,10.37
2023-05-14T07:04:12.065Z,10.45
2023-05-14T07:05:13.545Z,10.39
2023-05-14T07:06:15.292Z,10.32
2023-05-14T07:07:20.500Z,10.33
2023-05-14T07:08:22.031Z,10.42
2023-05-14T07:09:23.487Z,10.44
2023-05-14T07:10:25.718Z,10.52
2023-05-14T07:11:27.714Z,10.53
2023-05-14T07:12:29.194Z,10.54
2023-05-14T07:13:30.708Z,10.60
2023-05-14T07:14:32.172Z,10.51
2023-05-14T07:15:33.852Z,10.43
2023-05-14T07:16:36.006Z,10.55
2023-05-14T07:17:37.774Z,10.57
2023-05-14T07:18:39.455Z,10.58
2023-05-14T07:19:41.021Z,10.67
2023-05-14T07:20:42.494Z,10.74
2023-05-14T07:21:43.956Z,10.76
2023-05-14T07:22:45.500Z,10.82
2023-05-14T07:23:46.947Z,10.83
2023-05-14T07:24:49.258Z,10.84
2023-05-14T07:25:50.861Z,10.79
2023-05-14T07:26:52.338Z,10.82
2023-05-14T07:27:53.862Z,10.83
2023-05-14T07:28:55.848Z,10.92
2023-05-14T07:29:57.367Z,10.98
2023-05-14T07:30:59.443Z,10.95
2023-05-14T07:32:01.573Z,11.04
2023-05-14T07:33:03.136Z,11.05
2023-05-14T07:34:04.602Z,11.10
2023-05-14T07:35:07.156Z,11.12
2023-05-14T07:36:08.950Z,11.11
2023-05-14T07:37:10.710Z,11.12
2023-05-14T07:38:12.269Z,11.19
2023-05-14T07:39:13.928Z,11.08
2023-05-14T07:40:15.637Z,11.19
2023-05-14T07:41:17.266Z,11.19
2023-05-14T07:42:31.610Z,11.23
2023-05-14T07:43:33.912Z,11.25
2023-05-14T07:44:35.441Z,11.23
2023-05-14T07:45:38.598Z,11.19
2023-05-14T07:46:40.956Z,11.13
2023-05-14T07:47:42.601Z,11.20
2023-05-14T07:48:44.178Z,11.20
2023-05-14T07:49:45.718Z,11.23
2023-05-14T07:50:48.536Z,11.20
2023-05-14T07:51:50.147Z,11.30
2023-05-14T07:52:51.804Z,11.27
2023-05-14T07:53:54.468Z,11.32
2023-05-14T07:54:56.216Z,11.37
2023-05-14T07:55:58.309Z,11.43
2023-05-14T07:56:59.821Z,11.33
2023-05-14T07:58:01.338Z,11.12
2023-05-14T07:59:02.819Z,11.28
2023-05-14T08:00:08.311Z,11.44
2023-05-14T08:01:15.970Z,11.65
2023-05-14T08:02:17.603Z,11.79
2023-05-14T08:03:19.324Z,11.88
2023-05-14T08:04:20.933Z,11.90
2023-05-14T08:05:22.666Z,11.97
2023-05-14T08:06:27.436Z,12.08
2023-05-14T08:07:30.032Z,12.16
2023-05-14T08:08:31.706Z,12.38
2023-05-14T08:09:33.243Z,12.47
2023-05-14T08:10:34.780Z,12.51
2023-05-14T08:11:36.363Z,12.50
2023-05-14T08:12:38.720Z,12.53
2023-05-14T08:13:40.510Z,12.61
2023-05-14T08:14:42.020Z,12.69
2023-05-14T08:15:43.473Z,12.73
2023-05-14T08:16:44.982Z,12.84
2023-05-14T08:17:46.923Z,12.81
2023-05-14T08:18:48.414Z,12.97
2023-05-14T08:19:50.008Z,12.98
2023-05-14T08:20:51.709Z,12.93
2023-05-14T08:21:53.697Z,12.95
2023-05-14T08:22:56.290Z,12.99
2023-05-14T08:23:57.754Z,12.77
2023-05-14T08:25:00.877Z,12.88
2023-05-14T08:26:02.874Z,12.89
2023-05-14T08:27:04.886Z,13.15
2023-05-14T08:28:07.279Z,13.45
2023-05-14T08:29:10.674Z,13.40
2023-05-14T08:30:13.275Z,13.31
2023-05-14T08:31:14.892Z,13.24
2023-05-14T08:32:23.443Z,13.44
2023-05-14T08:33:25.708Z,13.71
2023-05-14T08:34:28.116Z,13.90
2023-05-14T08:35:29.685Z,14.14
2023-05-14T08:36:31.524Z,14.35
2023-05-14T08:37:33.054Z,14.31
2023-05-14T08:38:34.547Z,14.54
2023-05-14T08:39:36.029Z,14.48
2023-05-14T08:40:37.581Z,14.79
2023-05-14T08:41:40.383Z,14.95
2023-05-14T08:42:43.068Z,15.15
2023-05-14T08:43:50.677Z,15.44
2023-05-14T08:45:03.183Z,15.34
2023-05-14T08:46:06.778Z,15.34
2023-05-14T08:47:08.913Z,15.40
2023-05-14T08:48:14.680Z,15.45
2023-05-14T08:49:42.960Z,15.57
2023-05-14T08:50:44.556Z,15.78
2023-05-14T08:51:48.657Z,15.50
2023-05-14T08:52:50.484Z,15.42
2023-05-14T08:53:52.245Z,15.67
2023-05-14T08:54:54.100Z,15.23
2023-05-14T08:55:55.651Z,15.05
2023-05-14T08:56:57.288Z,15.48
2023-05-14T08:57:59.519Z,15.44
2023-05-14T08:59:00.993Z,15.33
2023-05-14T09:00:13.107Z,15.70
2023-05-14T09:01:14.931Z,15.89
2023-05-14T09:02:17.633Z,15.97
2023-05-14T09:03:19.475Z,16.18
2023-05-14T09:04:23.100Z,16.07
2023-05-14T09:05:24.814Z,15.62
2023-05-14T09:06:27.174Z,15.62
2023-05-14T09:07:28.685Z,15.57
2023-05-14T09:08:30.511Z,15.40
2023-05-14T09:09:32.506Z,15.38
2023-05-14T09:10:33.962Z,15.03
2023-05-14T09:11:41.527Z,15.10
2023-05-14T09:12:43.006Z,15.41
2023-05-14T09:13:44.530Z,15.64
2023-05-14T09:14:47.403Z,15.91
2023-05-14T09:15:51.459Z,16.33
2023-05-14T09:16:54.755Z,16.08
2023-05-14T09:17:56.786Z,16.34
2023-05-14T09:18:58.555Z,16.27
2023-05-14T09:20:00.773Z,15.99
2023-05-14T09:21:02.266Z,15.31
2023-05-14T09:22:09.190Z,15.99
2023-05-14T09:23:10.809Z,16.02
2023-05-14T09:24:23.881Z,16.34
2023-05-14T09:25:31.977Z,16.20
2023-05-14T09:26:34.947Z,16.26
2023-05-14T09:27:36.644Z,16.69
2023-05-14T09:28:44.639Z,16.73
2023-05-14T09:29:46.112Z,16.49
2023-05-14T09:30:52.229Z,16.60
2023-05-14T09:31:54.876Z,16.69
2023-05-14T09:32:56.905Z,16.41
2023-05-14T09:33:59.945Z,16.35
2023-05-14T09:35:13.188Z,16.47
2023-05-14T09:36:14.618Z,16.43
2023-05-14T09:37:16.347Z,16.63
2023-05-14T09:38:17.824Z,16.46
2023-05-14T09:39:19.574Z,16.73
2023-05-14T09:40:23.152Z,16.79
2023-05-14T09:41:25.590Z,16.64
2023-05-14T09:42:27.391Z,17.04
2023-05-14T09:43:28.829Z,17.03
2023-05-14T09:44:30.390Z,17.02
2023-05-14T09:45:31.816Z,17.25
2023-05-14T09:46:33.312Z,17.59
2023-05-14T09:47:35.305Z,17.31
2023-05-14T09:48:36.903Z,17.26
2023-05-14T09:49:39.701Z,17.35
2023-05-14T09:50:45.311Z,17.39
2023-05-14T09:51:46.840Z,17.89
2023-05-14T09:52:48.333Z,17.50
2023-05-14T09:53:52.858Z,17.98
2023-05-14T09:54:54.372Z,17.73
2023-05-14T09:55:56.022Z,17.69
2023-05-14T09:56:57.522Z,17.87
2023-05-14T09:57:59.268Z,17.62
2023-05-14T09:59:01.200Z,17.76
2023-05-14T10:00:03.010Z,18.10
2023-05-14T10:01:06.588Z,18.83
2023-05-14T10:02:24.272Z,19.12
2023-05-14T10:03:29.101Z,18.52
2023-05-14T10:04:30.667Z,18.91
2023-05-14T10:05:36.557Z,18.77
2023-05-14T10:06:39.418Z,19.03
2023-05-14T10:07:47.991Z,19.16
2023-05-14T10:08:54.761Z,18.82
2023-05-14T10:10:01.983Z,18.43
2023-05-14T10:11:11.376Z,19.07
2023-05-14T10:12:16.962Z,19.17
2023-05-14T10:13:24.039Z,18.87
2023-05-14T10:14:33.490Z,18.42
2023-05-14T10:15:48.799Z,18.35
2023-05-14T10:16:51.687Z,18.02
2023-05-14T10:17:58.778Z,17.97
2023-05-14T10:19:11.268Z,17.51
2023-05-14T10:20:16.858Z,17.26
2023-05-14T10:21:21.752Z,17.56
2023-05-14T10:22:25.890Z,17.44
2023-05-14T10:23:27.677Z,16.76
2023-05-14T10:24:29.680Z,16.52
2023-05-14T10:25:31.558Z,16.45
2023-05-14T10:26:39.205Z,16.13
2023-05-14T10:27:42.349Z,15.90
2023-05-14T10:28:44.279Z,15.39
2023-05-14T10:29:56.015Z,15.37
2023-05-14T10:30:59.216Z,15.34
2023-05-14T10:32:04.851Z,15.28
2023-05-14T10:33:12.482Z,15.02
2023-05-14T10:34:44.020Z,15.02
2023-05-14T10:36:03.404Z,14.94
2023-05-14T10:37:07.583Z,15.23
2023-05-14T10:38:09.291Z,15.51
2023-05-14T10:39:10.918Z,15.68
2023-05-14T10:40:14.354Z,15.69
2023-05-14T10:41:17.795Z,15.48
2023-05-14T10:42:22.075Z,15.98
2023-05-14T10:43:27.633Z,16.02
2023-05-14T10:44:29.287Z,16.31
2023-05-14T10:45:30.921Z,16.29
2023-05-14T10:46:32.710Z,16.68
2023-05-14T10:47:39.551Z,16.75
2023-05-14T10:48:43.090Z,17.16
2023-05-14T10:49:48.984Z,17.66
2023-05-14T10:50:51.932Z,17.71
2023-05-14T10:51:54.073Z,17.73
2023-05-14T10:52:57.071Z,17.92
2023-05-14T10:54:01.513Z,18.09
2023-05-14T10:55:07.654Z,17.73
2023-05-14T10:56:11.370Z,18.05
2023-05-14T10:57:13.940Z,18.09
2023-05-14T10:58:16.067Z,17.45
2023-05-14T10:59:17.866Z,17.24
2023-05-14T11:00:19.495Z,17.99
2023-05-14T11:01:24.332Z,18.72
2023-05-14T11:02:30.758Z,19.23
2023-05-14T11:03:38.546Z,18.58
2023-05-14T11:04:41.626Z,18.56
2023-05-14T11:05:44.081Z,18.50
2023-05-14T11:06:47.475Z,18.67
2023-05-14T11:07:50.223Z,18.82
2023-05-14T11:08:52.684Z,18.64
2023-05-14T11:09:59.751Z,19.18
2023-05-14T11:11:02.059Z,18.62
2023-05-14T11:12:03.737Z,18.32
2023-05-14T11:13:06.034Z,18.67
2023-05-14T11:14:09.579Z,18.96
2023-05-14T11:15:19.300Z,19.27
2023-05-14T11:16:24.077Z,19.85
2023-05-14T11:17:27.084Z,20.38
2023-05-14T11:18:33.572Z,19.96
2023-05-14T11:19:35.212Z,19.72
2023-05-14T11:20:37.596Z,19.09
2023-05-14T11:21:39.144Z,18.64
2023-05-14T11:22:42.172Z,18.75
2023-05-14T11:23:46.679Z,18.24
2023-05-14T11:24:48.759Z,18.51
2023-05-14T11:25:52.269Z,18.50
2023-05-14T11:26:55.979Z,18.97
2023-05-14T11:28:00.638Z,19.20
2023-05-14T11:29:02.410Z,19.29
2023-05-14T11:30:04.588Z,19.87
2023-05-14T11:31:06.279Z,19.84
2023-05-14T11:32:07.869Z,20.22
2023-05-14T11:33:09.521Z,20.22
2023-05-14T11:34:11.088Z,19.78
2023-05-14T11:35:13.570Z,19.97
2023-05-14T11:36:15.140Z,19.87
2023-05-14T11:37:16.993Z,19.64
2023-05-14T11:38:21.232Z,19.27
2023-05-14T11:39:22.773Z,18.72
2023-05-14T11:40:24.623Z,18.21
2023-05-14T11:41:28.061Z,18.01
2023-05-14T11:42:29.650Z,17.74
2023-05-14T11:43:31.287Z,17.49
2023-05-14T11:44:32.816Z,17.64
2023-05-14T11:45:34.566Z,17.31
2023-05-14T11:46:36.232Z,17.26
2023-05-14T11:47:38.033Z,17.34
2023-05-14T11:48:39.561Z,17.38
2023-05-14T11:49:41.180Z,17.28
2023-05-14T11:50:46.398Z,17.36
2023-05-14T11:51:47.895Z,17.62
2023-05-14T11:52:50.800Z,17.38
2023-05-14T11:53:54.171Z,17.60
2023-05-14T11:54:55.673Z,18.26
2023-05-14T11:56:00.041Z,18.78
2023-05-14T11:57:07.896Z,19.10
2023-05-14T11:58:09.638Z,19.28
2023-05-14T11:59:11.625Z,19.42
2023-05-14T12:00:14.573Z,20.04
2023-05-14T12:01:16.168Z,19.78
2023-05-14T12:02:18.808Z,19.34
2023-05-14T12:03:25.987Z,19.01
2023-05-14T12:04:29.364Z,19.41
2023-05-14T12:05:31.092Z,19.07
2023-05-14T12:06:32.770Z,19.16
2023-05-14T12:07:34.375Z,19.37
2023-05-14T12:08:37.596Z,19.39
2023-05-14T12:09:44.221Z,19.37
2023-05-14T12:10:47.010Z,19.60
2023-05-14T12:11:50.658Z,19.03
2023-05-14T12:12:52.197Z,19.05
2023-05-14T12:13:53.966Z,19.25
2023-05-14T12:14:56.083Z,19.46
2023-05-14T12:15:59.647Z,19.81
2023-05-14T12:17:01.916Z,19.75
2023-05-14T12:18:03.866Z,19.57
2023-05-14T12:19:05.874Z,19.34
2023-05-14T12:20:12.426Z,18.76
2023-05-14T12:21:14.462Z,18.53
2023-05-14T12:22:18.588Z,18.57
2023-05-14T12:23:27.988Z,18.43
2023-05-14T12:24:29.491Z,18.40
2023-05-14T12:25:30.981Z,18.43
2023-05-14T12:26:33.700Z,18.16
2023-05-14T12:27:36.947Z,17.96
2023-05-14T12:28:43.381Z,17.90
2023-05-14T12:29:45.355Z,17.84
2023-05-14T12:30:47.397Z,17.72
2023-05-14T12:31:50.039Z,17.83
2023-05-14T12:32:52.749Z,17.75
2023-05-14T12:33:54.662Z,17.68
2023-05-14T12:34:56.125Z,17.59
2023-05-14T12:36:09.901Z,17.50
2023-05-14T12:37:15.624Z,17.54
2023-05-14T12:38:17.411Z,17.59
2023-05-14T12:39:18.953Z,17.55
2023-05-14T12:40:20.546Z,17.39
2023-05-14T12:41:22.113Z,17.31
2023-05-14T12:42:23.889Z,17.64
2023-05-14T12:43:29.943Z,18.00
2023-05-14T12:44:31.455Z,18.19
2023-05-14T12:45:32.999Z,18.72
2023-05-14T12:46:34.652Z,18.88
2023-05-14T12:47:37.084Z,19.65
2023-05-14T12:48:38.945Z,20.38
2023-05-14T12:49:40.575Z,20.52
2023-05-14T12:50:42.363Z,20.77
2023-05-14T12:51:44.087Z,20.76
2023-05-14T12:52:46.488Z,20.40
2023-05-14T12:53:48.146Z,19.87
2023-05-14T12:54:49.615Z,19.57
2023-05-14T12:55:51.385Z,18.92
2023-05-14T12:56:52.899Z,18.35
2023-05-14T12:57:54.710Z,18.11
2023-05-14T12:58:56.483Z,17.53
2023-05-14T12:59:57.982Z,17.10
2023-05-14T13:00:59.610Z,16.62
2023-05-14T13:02:01.113Z,16.27
2023-05-14T13:03:02.791Z,15.78
2023-05-14T13:04:05.640Z,15.44
2023-05-14T13:05:07.548Z,15.21
2023-05-14T13:06:09.365Z,15.03
2023-05-14T13:07:10.916Z,14.91
2023-05-14T13:08:14.761Z,14.70
2023-05-14T13:09:16.305Z,14.62
2023-05-14T13:10:18.486Z,14.50
2023-05-14T13:11:20.004Z,14.42
2023-05-14T13:12:22.545Z,14.45
2023-05-14T13:13:24.041Z,14.44
2023-05-14T13:14:25.677Z,14.25
2023-05-14T13:15:27.203Z,14.34
2023-05-14T13:16:29.922Z,14.48
2023-05-14T13:17:31.538Z,14.62
2023-05-14T13:18:33.231Z,14.75
2023-05-14T13:19:34.766Z,14.87
2023-05-14T13:20:36.430Z,14.86
2023-05-14T13:21:37.890Z,15.04
2023-05-14T13:22:39.349Z,15.26
2023-05-14T13:23:40.858Z,15.45
2023-05-14T13:24:42.732Z,15.56
2023-05-14T13:25:44.247Z,15.73
2023-05-14T13:26:45.947Z,16.21
2023-05-14T13:27:47.573Z,16.52
2023-05-14T13:28:49.109Z,16.65
2023-05-14T13:29:50.627Z,16.80
2023-05-14T13:31:09.172Z,17.11
2023-05-14T13:32:10.737Z,16.93
2023-05-14T13:33:12.278Z,16.97
2023-05-14T13:34:13.799Z,16.76
2023-05-14T13:35:15.635Z,16.74
2023-05-14T13:36:17.182Z,16.77
2023-05-14T13:37:18.804Z,16.46
2023-05-14T13:38:20.238Z,16.21
2023-05-14T13:39:22.727Z,16.20
2023-05-14T13:40:24.275Z,16.26
2023-05-14T13:41:26.270Z,16.19
2023-05-14T13:42:27.755Z,16.12